sensor_id;sensor_type;location;lat;lon;timestamp;P1;durP1;ratioP1;P2;durP2;ratioP2
22673;SDS011;11504;43.334;21.918;2022-10-15T00:04:02;12.0;;;12.0;;
22673;SDS011;11504;43.334;21.918;2022-10-15T00:08:40;12.0;;;12.0;;
22673;SDS011;11504;43.334;21.918;2022-10-15T00:13:21;13.0;;;12.0;;
22673;SDS011;11504;43.334;21.918;2022-10-15T00:17:58;13.0;;;12.0;;
22673;SDS011;11504;43.334;21.918;2022-10-15T00:22:35;13.0;;;12.0;;
22673;SDS011;11504;43.334;21.918;2022-10-15T00:27:14;13.0;;;12.0;;
22673;SDS011;11504;43.334;21.918;2022-10-15T00:31:52;13.0;;;11.0;;
22673;SDS011;11504;43.334;21.918;2022-10-15T00:36:29;13.0;;;11.0;;
22673;SDS011;11504;43.334;21.918;2022-10-15T00:41:13;13.0;;;11.0;;
22673;SDS011;11504;43.334;21.918;2022-10-15T00:46:01;14.0;;;12.0;;
22673;SDS011;11504;43.334;21.918;2022-10-15T00:50:52;14.0;;;12.0;;
22673;SDS011;11504;43.334;21.918;2022-10-15T00:55:30;14.0;;;13.0;;
22673;SDS011;11504;43.334;21.918;2022-10-15T01:00:18;14.0;;;13.0;;
22673;SDS011;11504;43.334;21.918;2022-10-15T01:04:57;13.0;;;12.0;;
22673;SDS011;11504;43.334;21.918;2022-10-15T01:09:34;13.0;;;12.0;;
22673;SDS011;11504;43.334;21.918;2022-10-15T01:14:15;12.0;;;12.0;;
22673;SDS011;11504;43.334;21.918;2022-10-15T01:19:47;12.0;;;12.0;;
22673;SDS011;11504;43.334;21.918;2022-10-15T01:25:54;11.0;;;10.0;;
22673;SDS011;11504;43.334;21.918;2022-10-15T01:32:02;10.0;;;9.0;;
22673;SDS011;11504;43.334;21.918;2022-10-15T01:37:06;10.0;;;9.0;;
22673;SDS011;11504;43.334;21.918;2022-10-15T01:42:20;12.0;;;10.0;;
22673;SDS011;11504;43.334;21.918;2022-10-15T01:47:33;12.0;;;10.0;;
22673;SDS011;11504;43.334;21.918;2022-10-15T01:52:33;13.0;;;10.0;;
22673;SDS011;11504;43.334;21.918;2022-10-15T01:57:21;13.0;;;10.0;;
22673;SDS011;11504;43.334;21.918;2022-10-15T02:02:11;12.0;;;10.0;;
22673;SDS011;11504;43.334;21.918;2022-10-15T02:06:49;12.0;;;10.0;;
22673;SDS011;11504;43.334;21.918;2022-10-15T02:11:46;12.0;;;11.0;;
22673;SDS011;11504;43.334;21.918;2022-10-15T02:16:53;12.0;;;11.0;;
22673;SDS011;11504;43.334;21.918;2022-10-15T02:21:44;12.0;;;11.0;;
22673;SDS011;11504;43.334;21.918;2022-10-15T02:26:43;12.0;;;11.0;;
22673;SDS011;11504;43.334;21.918;2022-10-15T02:31:24;12.0;;;11.0;;
22673;SDS011;11504;43.334;21.918;2022-10-15T02:36:13;12.0;;;11.0;;
22673;SDS011;11504;43.334;21.918;2022-10-15T02:40:54;12.0;;;11.0;;
22673;SDS011;11504;43.334;21.918;2022-10-15T02:45:32;13.0;;;12.0;;
22673;SDS011;11504;43.334;21.918;2022-10-15T02:50:09;13.0;;;12.0;;
22673;SDS011;11504;43.334;21.918;2022-10-15T02:54:45;14.0;;;13.0;;
22673;SDS011;11504;43.334;21.918;2022-10-15T02:59:22;14.0;;;13.0;;
22673;SDS011;11504;43.334;21.918;2022-10-15T03:03:59;13.0;;;12.0;;
22673;SDS011;11504;43.334;21.918;2022-10-15T03:08:37;13.0;;;12.0;;
22673;SDS011;11504;43.334;21.918;2022-10-15T03:13:15;12.0;;;12.0;;
22673;SDS011;11504;43.334;21.918;2022-10-15T03:17:52;12.0;;;12.0;;
22673;SDS011;11504;43.334;21.918;2022-10-15T03:22:29;12.0;;;12.0;;
22673;SDS011;11504;43.334;21.918;2022-10-15T03:27:05;12.0;;;12.0;;
22673;SDS011;11504;43.334;21.918;2022-10-15T03:31:42;12.0;;;11.0;;
22673;SDS011;11504;43.334;21.918;2022-10-15T03:36:19;12.0;;;11.0;;
22673;SDS011;11504;43.334;21.918;2022-10-15T03:40:56;12.0;;;11.0;;
22673;SDS011;11504;43.334;21.918;2022-10-15T03:45:33;12.0;;;12.0;;
22673;SDS011;11504;43.334;21.918;2022-10-15T03:50:09;12.0;;;12.0;;
22673;SDS011;11504;43.334;21.918;2022-10-15T03:54:48;13.0;;;12.0;;
22673;SDS011;11504;43.334;21.918;2022-10-15T03:59:24;13.0;;;12.0;;
22673;SDS011;11504;43.334;21.918;2022-10-15T04:04:02;12.0;;;10.0;;
22673;SDS011;11504;43.334;21.918;2022-10-15T04:08:40;12.0;;;10.0;;
22673;SDS011;11504;43.334;21.918;2022-10-15T04:13:16;10.0;;;9.0;;
22673;SDS011;11504;43.334;21.918;2022-10-15T04:17:53;10.0;;;9.0;;
22673;SDS011;11504;43.334;21.918;2022-10-15T04:22:30;10.0;;;10.0;;
22673;SDS011;11504;43.334;21.918;2022-10-15T04:27:07;10.0;;;10.0;;
22673;SDS011;11504;43.334;21.918;2022-10-15T04:31:45;10.0;;;10.0;;
22673;SDS011;11504;43.334;21.918;2022-10-15T04:36:22;10.0;;;10.0;;
22673;SDS011;11504;43.334;21.918;2022-10-15T04:41:00;10.0;;;10.0;;
22673;SDS011;11504;43.334;21.918;2022-10-15T04:45:47;11.0;;;11.0;;
22673;SDS011;11504;43.334;21.918;2022-10-15T04:50:23;11.0;;;11.0;;
22673;SDS011;11504;43.334;21.918;2022-10-15T04:55:00;12.0;;;12.0;;
22673;SDS011;11504;43.334;21.918;2022-10-15T04:59:36;12.0;;;12.0;;
22673;SDS011;11504;43.334;21.918;2022-10-15T05:04:12;13.0;;;12.0;;
22673;SDS011;11504;43.334;21.918;2022-10-15T05:08:49;13.0;;;12.0;;
22673;SDS011;11504;43.334;21.918;2022-10-15T05:13:27;14.0;;;13.0;;
22673;SDS011;11504;43.334;21.918;2022-10-15T05:18:07;14.0;;;13.0;;
22673;SDS011;11504;43.334;21.918;2022-10-15T05:22:43;14.0;;;12.0;;
22673;SDS011;11504;43.334;21.918;2022-10-15T05:27:20;14.0;;;12.0;;
22673;SDS011;11504;43.334;21.918;2022-10-15T05:31:57;13.0;;;12.0;;
22673;SDS011;11504;43.334;21.918;2022-10-15T05:36:34;13.0;;;12.0;;
22673;SDS011;11504;43.334;21.918;2022-10-15T05:41:11;13.0;;;12.0;;
22673;SDS011;11504;43.334;21.918;2022-10-15T05:45:52;14.0;;;14.0;;
22673;SDS011;11504;43.334;21.918;2022-10-15T05:50:30;14.0;;;14.0;;
22673;SDS011;11504;43.334;21.918;2022-10-15T05:55:07;16.0;;;15.0;;
22673;SDS011;11504;43.334;21.918;2022-10-15T05:59:45;16.0;;;15.0;;
22673;SDS011;11504;43.334;21.918;2022-10-15T06:04:21;16.0;;;15.0;;
22673;SDS011;11504;43.334;21.918;2022-10-15T06:08:58;16.0;;;15.0;;
22673;SDS011;11504;43.334;21.918;2022-10-15T06:13:36;16.0;;;15.0;;
22673;SDS011;11504;43.334;21.918;2022-10-15T06:18:17;16.0;;;15.0;;
22673;SDS011;11504;43.334;21.918;2022-10-15T06:22:55;16.0;;;16.0;;
22673;SDS011;11504;43.334;21.918;2022-10-15T06:27:35;16.0;;;16.0;;
22673;SDS011;11504;43.334;21.918;2022-10-15T06:32:12;17.0;;;16.0;;
22673;SDS011;11504;43.334;21.918;2022-10-15T06:36:49;17.0;;;16.0;;
22673;SDS011;11504;43.334;21.918;2022-10-15T06:41:26;17.0;;;16.0;;
22673;SDS011;11504;43.334;21.918;2022-10-15T06:46:03;16.0;;;16.0;;
22673;SDS011;11504;43.334;21.918;2022-10-15T06:50:41;16.0;;;16.0;;
22673;SDS011;11504;43.334;21.918;2022-10-15T06:55:19;16.0;;;15.0;;
22673;SDS011;11504;43.334;21.918;2022-10-15T06:59:56;16.0;;;15.0;;
22673;SDS011;11504;43.334;21.918;2022-10-15T07:04:33;19.0;;;18.0;;
22673;SDS011;11504;43.334;21.918;2022-10-15T07:09:09;19.0;;;18.0;;
22673;SDS011;11504;43.334;21.918;2022-10-15T07:13:46;22.0;;;21.0;;
22673;SDS011;11504;43.334;21.918;2022-10-15T07:18:23;22.0;;;21.0;;
22673;SDS011;11504;43.334;21.918;2022-10-15T07:23:00;24.0;;;23.0;;
22673;SDS011;11504;43.334;21.918;2022-10-15T07:27:38;24.0;;;23.0;;
22673;SDS011;11504;43.334;21.918;2022-10-15T07:32:15;26.0;;;25.0;;
22673;SDS011;11504;43.334;21.918;2022-10-15T07:36:52;26.0;;;25.0;;
22673;SDS011;11504;43.334;21.918;2022-10-15T07:41:29;26.0;;;25.0;;
22673;SDS011;11504;43.334;21.918;2022-10-15T07:46:05;24.0;;;22.0;;
22673;SDS011;11504;43.334;21.918;2022-10-15T07:50:42;24.0;;;22.0;;
22673;SDS011;11504;43.334;21.918;2022-10-15T07:55:18;21.0;;;19.0;;
22673;SDS011;11504;43.334;21.918;2022-10-15T07:59:55;21.0;;;19.0;;
22673;SDS011;11504;43.334;21.918;2022-10-15T08:04:32;20.0;;;18.0;;
22673;SDS011;11504;43.334;21.918;2022-10-15T08:09:09;20.0;;;18.0;;
22673;SDS011;11504;43.334;21.918;2022-10-15T08:13:46;18.0;;;16.0;;
22673;SDS011;11504;43.334;21.918;2022-10-15T08:18:23;18.0;;;16.0;;
22673;SDS011;11504;43.334;21.918;2022-10-15T08:23:00;18.0;;;16.0;;
22673;SDS011;11504;43.334;21.918;2022-10-15T08:27:37;18.0;;;16.0;;
22673;SDS011;11504;43.334;21.918;2022-10-15T08:32:13;18.0;;;17.0;;
22673;SDS011;11504;43.334;21.918;2022-10-15T08:36:50;18.0;;;17.0;;
22673;SDS011;11504;43.334;21.918;2022-10-15T08:41:28;18.0;;;17.0;;
22673;SDS011;11504;43.334;21.918;2022-10-15T08:46:28;19.0;;;18.0;;
22673;SDS011;11504;43.334;21.918;2022-10-15T08:51:25;19.0;;;18.0;;
22673;SDS011;11504;43.334;21.918;2022-10-15T08:56:29;20.0;;;19.0;;
22673;SDS011;11504;43.334;21.918;2022-10-15T09:01:30;20.0;;;19.0;;
22673;SDS011;11504;43.334;21.918;2022-10-15T09:06:37;18.0;;;17.0;;
22673;SDS011;11504;43.334;21.918;2022-10-15T09:11:19;18.0;;;17.0;;
22673;SDS011;11504;43.334;21.918;2022-10-15T09:16:43;16.0;;;15.0;;
22673;SDS011;11504;43.334;21.918;2022-10-15T09:21:28;16.0;;;15.0;;
22673;SDS011;11504;43.334;21.918;2022-10-15T09:26:15;17.0;;;16.0;;
22673;SDS011;11504;43.334;21.918;2022-10-15T09:31:29;17.0;;;16.0;;
22673;SDS011;11504;43.334;21.918;2022-10-15T09:36:35;18.0;;;17.0;;
22673;SDS011;11504;43.334;21.918;2022-10-15T09:41:43;18.0;;;17.0;;
22673;SDS011;11504;43.334;21.918;2022-10-15T09:47:16;18.0;;;17.0;;
22673;SDS011;11504;43.334;21.918;2022-10-15T09:52:10;18.0;;;17.0;;
22673;SDS011;11504;43.334;21.918;2022-10-15T09:57:47;18.0;;;17.0;;
22673;SDS011;11504;43.334;21.918;2022-10-15T10:03:02;17.0;;;16.0;;
22673;SDS011;11504;43.334;21.918;2022-10-15T10:07:50;17.0;;;16.0;;
22673;SDS011;11504;43.334;21.918;2022-10-15T10:12:52;16.0;;;16.0;;
22673;SDS011;11504;43.334;21.918;2022-10-15T10:17:32;16.0;;;16.0;;
22673;SDS011;11504;43.334;21.918;2022-10-15T10:22:12;14.0;;;13.0;;
22673;SDS011;11504;43.334;21.918;2022-10-15T10:26:55;14.0;;;13.0;;
22673;SDS011;11504;43.334;21.918;2022-10-15T10:31:35;14.0;;;13.0;;
22673;SDS011;11504;43.334;21.918;2022-10-15T10:36:19;11.0;;;10.0;;
22673;SDS011;11504;43.334;21.918;2022-10-15T10:41:10;11.0;;;10.0;;
22673;SDS011;11504;43.334;21.918;2022-10-15T10:45:51;10.0;;;10.0;;
22673;SDS011;11504;43.334;21.918;2022-10-15T10:50:39;10.0;;;10.0;;
22673;SDS011;11504;43.334;21.918;2022-10-15T10:55:17;10.0;;;10.0;;
22673;SDS011;11504;43.334;21.918;2022-10-15T11:00:14;10.0;;;10.0;;
22673;SDS011;11504;43.334;21.918;2022-10-15T11:05:18;10.0;;;10.0;;
22673;SDS011;11504;43.334;21.918;2022-10-15T11:10:17;10.0;;;10.0;;
22673;SDS011;11504;43.334;21.918;2022-10-15T11:15:30;9.0;;;9.0;;
22673;SDS011;11504;43.334;21.918;2022-10-15T11:20:46;9.0;;;9.0;;
22673;SDS011;11504;43.334;21.918;2022-10-15T11:26:27;9.0;;;8.0;;
22673;SDS011;11504;43.334;21.918;2022-10-15T11:31:54;9.0;;;8.0;;
22673;SDS011;11504;43.334;21.918;2022-10-15T11:37:24;9.0;;;8.0;;
22673;SDS011;11504;43.334;21.918;2022-10-15T11:43:02;10.0;;;10.0;;
22673;SDS011;11504;43.334;21.918;2022-10-15T11:49:01;10.0;;;10.0;;
22673;SDS011;11504;43.334;21.918;2022-10-15T11:54:54;11.0;;;11.0;;
22673;SDS011;11504;43.334;21.918;2022-10-15T11:59:59;11.0;;;11.0;;
22673;SDS011;11504;43.334;21.918;2022-10-15T12:05:15;12.0;;;11.0;;
22673;SDS011;11504;43.334;21.918;2022-10-15T12:10:27;12.0;;;11.0;;
22673;SDS011;11504;43.334;21.918;2022-10-15T12:16:11;12.0;;;11.0;;
22673;SDS011;11504;43.334;21.918;2022-10-15T12:21:35;12.0;;;11.0;;
22673;SDS011;11504;43.334;21.918;2022-10-15T12:26:41;12.0;;;12.0;;
22673;SDS011;11504;43.334;21.918;2022-10-15T12:31:18;12.0;;;12.0;;
22673;SDS011;11504;43.334;21.918;2022-10-15T12:35:59;12.0;;;12.0;;
22673;SDS011;11504;43.334;21.918;2022-10-15T12:41:02;12.0;;;12.0;;
22673;SDS011;11504;43.334;21.918;2022-10-15T12:45:49;12.0;;;12.0;;
22673;SDS011;11504;43.334;21.918;2022-10-15T12:50:34;12.0;;;12.0;;
22673;SDS011;11504;43.334;21.918;2022-10-15T12:55:18;13.0;;;11.0;;
22673;SDS011;11504;43.334;21.918;2022-10-15T13:00:39;13.0;;;11.0;;
22673;SDS011;11504;43.334;21.918;2022-10-15T13:05:23;10.0;;;10.0;;
22673;SDS011;11504;43.334;21.918;2022-10-15T13:10:15;10.0;;;10.0;;
22673;SDS011;11504;43.334;21.918;2022-10-15T13:15:03;8.0;;;8.0;;
22673;SDS011;11504;43.334;21.918;2022-10-15T13:19:52;8.0;;;8.0;;
22673;SDS011;11504;43.334;21.918;2022-10-15T13:24:42;10.0;;;10.0;;
22673;SDS011;11504;43.334;21.918;2022-10-15T13:29:21;10.0;;;10.0;;
22673;SDS011;11504;43.334;21.918;2022-10-15T13:34:06;13.0;;;13.0;;
22673;SDS011;11504;43.334;21.918;2022-10-15T13:39:19;13.0;;;13.0;;
22673;SDS011;11504;43.334;21.918;2022-10-15T13:44:18;14.0;;;14.0;;
22673;SDS011;11504;43.334;21.918;2022-10-15T13:49:00;14.0;;;14.0;;
22673;SDS011;11504;43.334;21.918;2022-10-15T13:53:49;15.0;;;15.0;;
22673;SDS011;11504;43.334;21.918;2022-10-15T13:58:26;15.0;;;15.0;;
22673;SDS011;11504;43.334;21.918;2022-10-15T14:03:14;14.0;;;14.0;;
22673;SDS011;11504;43.334;21.918;2022-10-15T14:08:00;14.0;;;14.0;;
22673;SDS011;11504;43.334;21.918;2022-10-15T14:12:37;13.0;;;13.0;;
22673;SDS011;11504;43.334;21.918;2022-10-15T14:17:20;13.0;;;13.0;;
22673;SDS011;11504;43.334;21.918;2022-10-15T14:22:02;13.0;;;13.0;;
22673;SDS011;11504;43.334;21.918;2022-10-15T14:26:50;12.0;;;12.0;;
22673;SDS011;11504;43.334;21.918;2022-10-15T14:31:29;12.0;;;12.0;;
22673;SDS011;11504;43.334;21.918;2022-10-15T14:36:25;12.0;;;11.0;;
22673;SDS011;11504;43.334;21.918;2022-10-15T14:41:20;12.0;;;11.0;;
22673;SDS011;11504;43.334;21.918;2022-10-15T14:46:10;12.0;;;11.0;;
22673;SDS011;11504;43.334;21.918;2022-10-15T14:50:55;12.0;;;11.0;;
22673;SDS011;11504;43.334;21.918;2022-10-15T14:55:47;11.0;;;11.0;;
22673;SDS011;11504;43.334;21.918;2022-10-15T15:00:53;11.0;;;11.0;;
22673;SDS011;11504;43.334;21.918;2022-10-15T15:05:43;11.0;;;11.0;;
22673;SDS011;11504;43.334;21.918;2022-10-15T15:10:30;11.0;;;11.0;;
22673;SDS011;11504;43.334;21.918;2022-10-15T15:15:11;11.0;;;11.0;;
22673;SDS011;11504;43.334;21.918;2022-10-15T15:19:57;11.0;;;11.0;;
22673;SDS011;11504;43.334;21.918;2022-10-15T15:24:34;10.0;;;10.0;;
22673;SDS011;11504;43.334;21.918;2022-10-15T15:29:11;10.0;;;10.0;;
22673;SDS011;11504;43.334;21.918;2022-10-15T15:33:48;10.0;;;9.0;;
22673;SDS011;11504;43.334;21.918;2022-10-15T15:38:24;10.0;;;9.0;;
22673;SDS011;11504;43.334;21.918;2022-10-15T15:43:01;10.0;;;10.0;;
22673;SDS011;11504;43.334;21.918;2022-10-15T15:47:39;10.0;;;10.0;;
22673;SDS011;11504;43.334;21.918;2022-10-15T15:52:15;11.0;;;10.0;;
22673;SDS011;11504;43.334;21.918;2022-10-15T15:56:52;11.0;;;10.0;;
22673;SDS011;11504;43.334;21.918;2022-10-15T16:01:28;11.0;;;10.0;;
22673;SDS011;11504;43.334;21.918;2022-10-15T16:06:05;12.0;;;11.0;;
22673;SDS011;11504;43.334;21.918;2022-10-15T16:10:44;12.0;;;11.0;;
22673;SDS011;11504;43.334;21.918;2022-10-15T16:15:21;12.0;;;12.0;;
22673;SDS011;11504;43.334;21.918;2022-10-15T16:19:57;12.0;;;12.0;;
22673;SDS011;11504;43.334;21.918;2022-10-15T16:24:34;12.0;;;12.0;;
22673;SDS011;11504;43.334;21.918;2022-10-15T16:29:11;12.0;;;12.0;;
22673;SDS011;11504;43.334;21.918;2022-10-15T16:33:47;12.0;;;11.0;;
22673;SDS011;11504;43.334;21.918;2022-10-15T16:38:26;12.0;;;11.0;;
22673;SDS011;11504;43.334;21.918;2022-10-15T16:43:03;13.0;;;12.0;;
22673;SDS011;11504;43.334;21.918;2022-10-15T16:47:40;13.0;;;12.0;;
22673;SDS011;11504;43.334;21.918;2022-10-15T16:52:17;13.0;;;12.0;;
22673;SDS011;11504;43.334;21.918;2022-10-15T16:56:53;14.0;;;13.0;;
22673;SDS011;11504;43.334;21.918;2022-10-15T17:01:30;14.0;;;13.0;;
22673;SDS011;11504;43.334;21.918;2022-10-15T17:06:07;14.0;;;13.0;;
22673;SDS011;11504;43.334;21.918;2022-10-15T17:10:52;14.0;;;13.0;;
22673;SDS011;11504;43.334;21.918;2022-10-15T17:15:29;14.0;;;13.0;;
22673;SDS011;11504;43.334;21.918;2022-10-15T17:20:07;14.0;;;13.0;;
22673;SDS011;11504;43.334;21.918;2022-10-15T17:24:47;13.0;;;12.0;;
22673;SDS011;11504;43.334;21.918;2022-10-15T17:29:24;13.0;;;12.0;;
22673;SDS011;11504;43.334;21.918;2022-10-15T17:34:02;12.0;;;11.0;;
22673;SDS011;11504;43.334;21.918;2022-10-15T17:38:48;12.0;;;11.0;;
22673;SDS011;11504;43.334;21.918;2022-10-15T17:43:26;12.0;;;11.0;;
22673;SDS011;11504;43.334;21.918;2022-10-15T17:48:04;12.0;;;11.0;;
22673;SDS011;11504;43.334;21.918;2022-10-15T17:52:41;12.0;;;11.0;;
22673;SDS011;11504;43.334;21.918;2022-10-15T17:57:18;12.0;;;11.0;;
22673;SDS011;11504;43.334;21.918;2022-10-15T18:01:55;12.0;;;11.0;;
22673;SDS011;11504;43.334;21.918;2022-10-15T18:06:32;12.0;;;12.0;;
22673;SDS011;11504;43.334;21.918;2022-10-15T18:11:08;12.0;;;12.0;;
22673;SDS011;11504;43.334;21.918;2022-10-15T18:15:54;13.0;;;13.0;;
22673;SDS011;11504;43.334;21.918;2022-10-15T18:20:31;13.0;;;13.0;;
22673;SDS011;11504;43.334;21.918;2022-10-15T18:25:07;11.0;;;11.0;;
22673;SDS011;11504;43.334;21.918;2022-10-15T18:29:44;11.0;;;11.0;;
22673;SDS011;11504;43.334;21.918;2022-10-15T18:34:20;9.0;;;9.0;;
22673;SDS011;11504;43.334;21.918;2022-10-15T18:38:57;9.0;;;9.0;;
22673;SDS011;11504;43.334;21.918;2022-10-15T18:43:34;12.0;;;11.0;;
22673;SDS011;11504;43.334;21.918;2022-10-15T18:48:11;12.0;;;11.0;;
22673;SDS011;11504;43.334;21.918;2022-10-15T18:52:48;14.0;;;13.0;;
22673;SDS011;11504;43.334;21.918;2022-10-15T18:57:25;14.0;;;13.0;;
22673;SDS011;11504;43.334;21.918;2022-10-15T19:02:02;14.0;;;13.0;;
22673;SDS011;11504;43.334;21.918;2022-10-15T19:06:39;16.0;;;14.0;;
22673;SDS011;11504;43.334;21.918;2022-10-15T19:11:26;16.0;;;14.0;;
22673;SDS011;11504;43.334;21.918;2022-10-15T19:16:06;17.0;;;16.0;;
22673;SDS011;11504;43.334;21.918;2022-10-15T19:20:45;17.0;;;16.0;;
22673;SDS011;11504;43.334;21.918;2022-10-15T19:25:22;17.0;;;16.0;;
22673;SDS011;11504;43.334;21.918;2022-10-15T19:29:59;17.0;;;16.0;;
22673;SDS011;11504;43.334;21.918;2022-10-15T19:34:35;17.0;;;17.0;;
22673;SDS011;11504;43.334;21.918;2022-10-15T19:39:13;17.0;;;17.0;;
22673;SDS011;11504;43.334;21.918;2022-10-15T19:43:58;16.0;;;16.0;;
22673;SDS011;11504;43.334;21.918;2022-10-15T19:48:40;16.0;;;16.0;;
22673;SDS011;11504;43.334;21.918;2022-10-15T19:53:17;15.0;;;15.0;;
22673;SDS011;11504;43.334;21.918;2022-10-15T19:57:54;15.0;;;15.0;;
22673;SDS011;11504;43.334;21.918;2022-10-15T20:02:30;15.0;;;14.0;;
22673;SDS011;11504;43.334;21.918;2022-10-15T20:07:07;15.0;;;14.0;;
22673;SDS011;11504;43.334;21.918;2022-10-15T20:11:44;15.0;;;14.0;;
22673;SDS011;11504;43.334;21.918;2022-10-15T20:16:20;15.0;;;14.0;;
22673;SDS011;11504;43.334;21.918;2022-10-15T20:20:57;15.0;;;14.0;;
22673;SDS011;11504;43.334;21.918;2022-10-15T20:25:35;14.0;;;14.0;;
22673;SDS011;11504;43.334;21.918;2022-10-15T20:30:13;14.0;;;14.0;;
22673;SDS011;11504;43.334;21.918;2022-10-15T20:34:51;14.0;;;13.0;;
22673;SDS011;11504;43.334;21.918;2022-10-15T20:39:28;14.0;;;13.0;;
22673;SDS011;11504;43.334;21.918;2022-10-15T20:44:05;13.0;;;12.0;;
22673;SDS011;11504;43.334;21.918;2022-10-15T20:48:46;13.0;;;12.0;;
22673;SDS011;11504;43.334;21.918;2022-10-15T20:53:24;12.0;;;11.0;;
22673;SDS011;11504;43.334;21.918;2022-10-15T20:58:04;12.0;;;11.0;;
22673;SDS011;11504;43.334;21.918;2022-10-15T21:02:41;12.0;;;11.0;;
22673;SDS011;11504;43.334;21.918;2022-10-15T21:07:17;12.0;;;11.0;;
22673;SDS011;11504;43.334;21.918;2022-10-15T21:11:54;12.0;;;11.0;;
22673;SDS011;11504;43.334;21.918;2022-10-15T21:16:30;11.0;;;11.0;;
22673;SDS011;11504;43.334;21.918;2022-10-15T21:21:08;11.0;;;11.0;;
22673;SDS011;11504;43.334;21.918;2022-10-15T21:25:49;10.0;;;10.0;;
22673;SDS011;11504;43.334;21.918;2022-10-15T21:30:26;10.0;;;10.0;;
22673;SDS011;11504;43.334;21.918;2022-10-15T21:35:03;10.0;;;9.0;;
22673;SDS011;11504;43.334;21.918;2022-10-15T21:39:44;10.0;;;9.0;;
22673;SDS011;11504;43.334;21.918;2022-10-15T21:44:20;10.0;;;9.0;;
22673;SDS011;11504;43.334;21.918;2022-10-15T21:48:58;10.0;;;9.0;;
22673;SDS011;11504;43.334;21.918;2022-10-15T21:53:37;10.0;;;9.0;;
22673;SDS011;11504;43.334;21.918;2022-10-15T21:58:13;10.0;;;9.0;;
22673;SDS011;11504;43.334;21.918;2022-10-15T22:02:50;10.0;;;10.0;;
22673;SDS011;11504;43.334;21.918;2022-10-15T22:07:26;10.0;;;10.0;;
22673;SDS011;11504;43.334;21.918;2022-10-15T22:12:03;10.0;;;10.0;;
22673;SDS011;11504;43.334;21.918;2022-10-15T22:16:40;10.0;;;10.0;;
22673;SDS011;11504;43.334;21.918;2022-10-15T22:21:18;10.0;;;10.0;;
22673;SDS011;11504;43.334;21.918;2022-10-15T22:26:06;10.0;;;10.0;;
22673;SDS011;11504;43.334;21.918;2022-10-15T22:30:43;10.0;;;10.0;;
22673;SDS011;11504;43.334;21.918;2022-10-15T22:35:20;10.0;;;10.0;;
22673;SDS011;11504;43.334;21.918;2022-10-15T22:39:56;10.0;;;10.0;;
22673;SDS011;11504;43.334;21.918;2022-10-15T22:44:33;10.0;;;9.0;;
22673;SDS011;11504;43.334;21.918;2022-10-15T22:49:10;10.0;;;9.0;;
22673;SDS011;11504;43.334;21.918;2022-10-15T22:53:55;9.0;;;8.0;;
22673;SDS011;11504;43.334;21.918;2022-10-15T22:58:36;9.0;;;8.0;;
22673;SDS011;11504;43.334;21.918;2022-10-15T23:03:14;8.0;;;8.0;;
22673;SDS011;11504;43.334;21.918;2022-10-15T23:07:51;8.0;;;8.0;;
22673;SDS011;11504;43.334;21.918;2022-10-15T23:12:28;8.0;;;8.0;;
22673;SDS011;11504;43.334;21.918;2022-10-15T23:17:05;8.0;;;7.0;;
22673;SDS011;11504;43.334;21.918;2022-10-15T23:21:42;8.0;;;7.0;;
22673;SDS011;11504;43.334;21.918;2022-10-15T23:26:25;12.0;;;10.0;;
22673;SDS011;11504;43.334;21.918;2022-10-15T23:31:04;12.0;;;10.0;;
22673;SDS011;11504;43.334;21.918;2022-10-15T23:35:41;15.0;;;14.0;;
22673;SDS011;11504;43.334;21.918;2022-10-15T23:40:17;15.0;;;14.0;;
22673;SDS011;11504;43.334;21.918;2022-10-15T23:44:53;15.0;;;13.0;;
22673;SDS011;11504;43.334;21.918;2022-10-15T23:49:29;15.0;;;13.0;;
22673;SDS011;11504;43.334;21.918;2022-10-15T23:54:09;15.0;;;12.0;;
22673;SDS011;11504;43.334;21.918;2022-10-15T23:58:53;15.0;;;12.0;;
